sensor_id;sensor_type;location;lat;lon;timestamp;temperature;humidity
14517;DHT22;7344;50.864;4.362;2023-03-01T00:00:54;1.30;99.90
14517;DHT22;7344;50.864;4.362;2023-03-01T00:03:25;1.30;99.90
14517;DHT22;7344;50.864;4.362;2023-03-01T00:05:51;1.30;99.90
14517;DHT22;7344;50.864;4.362;2023-03-01T00:08:16;1.30;99.90
14517;DHT22;7344;50.864;4.362;2023-03-01T00:10:42;1.30;99.90
14517;DHT22;7344;50.864;4.362;2023-03-01T00:13:08;1.30;99.90
14517;DHT22;7344;50.864;4.362;2023-03-01T00:15:37;1.30;99.90
14517;DHT22;7344;50.864;4.362;2023-03-01T00:18:02;1.20;99.90
14517;DHT22;7344;50.864;4.362;2023-03-01T00:20:28;1.20;99.90
14517;DHT22;7344;50.864;4.362;2023-03-01T00:22:54;1.20;99.90
14517;DHT22;7344;50.864;4.362;2023-03-01T00:25:19;1.20;99.90
14517;DHT22;7344;50.864;4.362;2023-03-01T00:27:46;1.20;99.90
14517;DHT22;7344;50.864;4.362;2023-03-01T00:30:12;1.20;99.90
14517;DHT22;7344;50.864;4.362;2023-03-01T00:32:38;1.20;99.90
14517;DHT22;7344;50.864;4.362;2023-03-01T00:35:03;1.10;99.90
14517;DHT22;7344;50.864;4.362;2023-03-01T00:37:31;1.00;99.90
14517;DHT22;7344;50.864;4.362;2023-03-01T00:39:56;1.10;99.90
14517;DHT22;7344;50.864;4.362;2023-03-01T00:42:22;1.10;99.90
14517;DHT22;7344;50.864;4.362;2023-03-01T00:44:47;1.00;99.90
14517;DHT22;7344;50.864;4.362;2023-03-01T00:47:13;1.00;99.90
14517;DHT22;7344;50.864;4.362;2023-03-01T00:49:39;1.00;99.90
14517;DHT22;7344;50.864;4.362;2023-03-01T00:52:05;1.00;99.90
14517;DHT22;7344;50.864;4.362;2023-03-01T00:54:31;0.90;99.90
14517;DHT22;7344;50.864;4.362;2023-03-01T00:56:57;0.90;99.90
14517;DHT22;7344;50.864;4.362;2023-03-01T00:59:22;0.90;99.90
14517;DHT22;7344;50.864;4.362;2023-03-01T01:01:48;0.90;99.90
14517;DHT22;7344;50.864;4.362;2023-03-01T01:04:14;0.90;99.90
14517;DHT22;7344;50.864;4.362;2023-03-01T01:06:42;0.90;99.90
14517;DHT22;7344;50.864;4.362;2023-03-01T01:09:10;0.90;99.90
14517;DHT22;7344;50.864;4.362;2023-03-01T01:11:43;0.80;99.90
14517;DHT22;7344;50.864;4.362;2023-03-01T01:14:09;0.80;99.90
14517;DHT22;7344;50.864;4.362;2023-03-01T01:16:35;0.80;99.90
14517;DHT22;7344;50.864;4.362;2023-03-01T01:19:01;0.80;99.90
14517;DHT22;7344;50.864;4.362;2023-03-01T01:21:27;0.90;99.90
14517;DHT22;7344;50.864;4.362;2023-03-01T01:23:53;0.90;99.90
14517;DHT22;7344;50.864;4.362;2023-03-01T01:26:24;0.80;99.90
14517;DHT22;7344;50.864;4.362;2023-03-01T01:28:50;0.80;99.90
14517;DHT22;7344;50.864;4.362;2023-03-01T01:31:16;0.80;99.90
14517;DHT22;7344;50.864;4.362;2023-03-01T01:33:42;0.80;99.90
14517;DHT22;7344;50.864;4.362;2023-03-01T01:36:09;0.80;99.90
14517;DHT22;7344;50.864;4.362;2023-03-01T01:38:35;0.80;99.90
14517;DHT22;7344;50.864;4.362;2023-03-01T01:41:01;0.80;99.90
14517;DHT22;7344;50.864;4.362;2023-03-01T01:43:32;0.80;99.90
14517;DHT22;7344;50.864;4.362;2023-03-01T01:46:04;0.70;99.90
14517;DHT22;7344;50.864;4.362;2023-03-01T01:48:55;0.70;99.90
14517;DHT22;7344;50.864;4.362;2023-03-01T01:51:25;0.70;99.90
14517;DHT22;7344;50.864;4.362;2023-03-01T01:53:57;0.70;99.90
14517;DHT22;7344;50.864;4.362;2023-03-01T01:56:24;0.60;99.90
14517;DHT22;7344;50.864;4.362;2023-03-01T01:58:51;0.70;99.90
14517;DHT22;7344;50.864;4.362;2023-03-01T02:01:17;0.60;99.90
14517;DHT22;7344;50.864;4.362;2023-03-01T02:03:43;0.60;99.90
14517;DHT22;7344;50.864;4.362;2023-03-01T02:08:38;0.50;99.90
14517;DHT22;7344;50.864;4.362;2023-03-01T02:11:05;0.60;99.90
14517;DHT22;7344;50.864;4.362;2023-03-01T02:13:33;0.60;99.90
14517;DHT22;7344;50.864;4.362;2023-03-01T02:15:59;0.50;99.90
14517;DHT22;7344;50.864;4.362;2023-03-01T02:18:25;0.50;99.90
14517;DHT22;7344;50.864;4.362;2023-03-01T02:23:42;0.40;99.90
14517;DHT22;7344;50.864;4.362;2023-03-01T02:26:26;0.40;99.90
14517;DHT22;7344;50.864;4.362;2023-03-01T02:28:55;0.40;99.90
14517;DHT22;7344;50.864;4.362;2023-03-01T02:31:21;0.40;99.90
14517;DHT22;7344;50.864;4.362;2023-03-01T02:34:07;0.40;99.90
14517;DHT22;7344;50.864;4.362;2023-03-01T02:36:43;0.30;99.90
14517;DHT22;7344;50.864;4.362;2023-03-01T02:39:14;0.30;99.90
14517;DHT22;7344;50.864;4.362;2023-03-01T02:41:48;0.30;99.90
14517;DHT22;7344;50.864;4.362;2023-03-01T02:44:15;0.30;99.90
14517;DHT22;7344;50.864;4.362;2023-03-01T02:46:49;0.30;99.90
14517;DHT22;7344;50.864;4.362;2023-03-01T02:49:27;0.30;99.90
14517;DHT22;7344;50.864;4.362;2023-03-01T02:52:01;0.30;99.90
14517;DHT22;7344;50.864;4.362;2023-03-01T02:56:59;0.20;99.90
14517;DHT22;7344;50.864;4.362;2023-03-01T02:59:29;0.20;99.90
14517;DHT22;7344;50.864;4.362;2023-03-01T03:01:55;0.20;99.90
14517;DHT22;7344;50.864;4.362;2023-03-01T03:04:21;0.20;99.90
14517;DHT22;7344;50.864;4.362;2023-03-01T03:06:49;0.20;99.90
14517;DHT22;7344;50.864;4.362;2023-03-01T03:09:16;0.10;99.90
14517;DHT22;7344;50.864;4.362;2023-03-01T03:11:41;0.10;99.90
14517;DHT22;7344;50.864;4.362;2023-03-01T03:14:12;0.10;99.90
14517;DHT22;7344;50.864;4.362;2023-03-01T03:16:43;0.10;99.90
14517;DHT22;7344;50.864;4.362;2023-03-01T03:19:09;0.10;99.90
14517;DHT22;7344;50.864;4.362;2023-03-01T03:21:35;0.10;99.90
14517;DHT22;7344;50.864;4.362;2023-03-01T03:24:01;0.10;99.90
14517;DHT22;7344;50.864;4.362;2023-03-01T03:26:27;0.10;99.90
14517;DHT22;7344;50.864;4.362;2023-03-01T03:28:52;0.00;99.90
14517;DHT22;7344;50.864;4.362;2023-03-01T03:31:18;0.10;99.90
14517;DHT22;7344;50.864;4.362;2023-03-01T03:33:43;0.00;99.90
14517;DHT22;7344;50.864;4.362;2023-03-01T03:36:09;0.00;99.90
14517;DHT22;7344;50.864;4.362;2023-03-01T03:38:43;0.00;99.90
14517;DHT22;7344;50.864;4.362;2023-03-01T03:41:09;-0.10;99.90
14517;DHT22;7344;50.864;4.362;2023-03-01T03:43:37;-0.10;99.90
14517;DHT22;7344;50.864;4.362;2023-03-01T03:46:04;-0.10;99.90
14517;DHT22;7344;50.864;4.362;2023-03-01T03:48:40;-0.20;99.90
14517;DHT22;7344;50.864;4.362;2023-03-01T03:51:06;-0.20;99.90
14517;DHT22;7344;50.864;4.362;2023-03-01T03:53:32;-0.20;99.90
14517;DHT22;7344;50.864;4.362;2023-03-01T03:55:58;-0.30;99.90
14517;DHT22;7344;50.864;4.362;2023-03-01T03:58:25;-0.20;99.90
14517;DHT22;7344;50.864;4.362;2023-03-01T04:00:53;-0.20;99.90
14517;DHT22;7344;50.864;4.362;2023-03-01T04:03:20;-0.30;99.90
14517;DHT22;7344;50.864;4.362;2023-03-01T04:05:46;-0.30;99.90
14517;DHT22;7344;50.864;4.362;2023-03-01T04:08:12;-0.30;99.90
14517;DHT22;7344;50.864;4.362;2023-03-01T04:10:43;-0.30;99.90
14517;DHT22;7344;50.864;4.362;2023-03-01T04:13:12;-0.30;99.90
14517;DHT22;7344;50.864;4.362;2023-03-01T04:15:39;-0.40;99.90
14517;DHT22;7344;50.864;4.362;2023-03-01T04:18:05;-0.40;99.90
14517;DHT22;7344;50.864;4.362;2023-03-01T04:20:33;-0.40;99.90
14517;DHT22;7344;50.864;4.362;2023-03-01T04:23:02;-0.40;99.90
14517;DHT22;7344;50.864;4.362;2023-03-01T04:25:42;-0.50;99.90
14517;DHT22;7344;50.864;4.362;2023-03-01T04:28:10;-0.50;99.90
14517;DHT22;7344;50.864;4.362;2023-03-01T04:30:37;-0.50;99.90
14517;DHT22;7344;50.864;4.362;2023-03-01T04:33:08;-0.40;99.90
14517;DHT22;7344;50.864;4.362;2023-03-01T04:35:35;-0.50;99.90
14517;DHT22;7344;50.864;4.362;2023-03-01T04:38:01;-0.50;99.90
14517;DHT22;7344;50.864;4.362;2023-03-01T04:40:27;-0.50;99.90
14517;DHT22;7344;50.864;4.362;2023-03-01T04:42:52;-0.60;99.90
14517;DHT22;7344;50.864;4.362;2023-03-01T04:45:18;-0.60;99.90
14517;DHT22;7344;50.864;4.362;2023-03-01T04:47:45;-0.60;99.90
14517;DHT22;7344;50.864;4.362;2023-03-01T04:50:14;-0.60;99.90
14517;DHT22;7344;50.864;4.362;2023-03-01T04:52:40;-0.60;99.90
14517;DHT22;7344;50.864;4.362;2023-03-01T04:55:06;-0.60;99.90
14517;DHT22;7344;50.864;4.362;2023-03-01T04:57:33;-0.60;99.90
14517;DHT22;7344;50.864;4.362;2023-03-01T04:59:58;-0.60;99.90
14517;DHT22;7344;50.864;4.362;2023-03-01T05:02:24;-0.60;99.90
14517;DHT22;7344;50.864;4.362;2023-03-01T05:04:50;-0.60;99.90
14517;DHT22;7344;50.864;4.362;2023-03-01T05:07:15;-0.60;99.90
14517;DHT22;7344;50.864;4.362;2023-03-01T05:09:47;-0.70;99.90
14517;DHT22;7344;50.864;4.362;2023-03-01T05:12:14;-0.70;99.90
14517;DHT22;7344;50.864;4.362;2023-03-01T05:14:40;-0.70;99.90
14517;DHT22;7344;50.864;4.362;2023-03-01T05:17:07;-0.70;99.90
14517;DHT22;7344;50.864;4.362;2023-03-01T05:19:33;-0.70;99.90
14517;DHT22;7344;50.864;4.362;2023-03-01T05:21:59;-0.70;99.90
14517;DHT22;7344;50.864;4.362;2023-03-01T05:24:30;-0.70;99.90
14517;DHT22;7344;50.864;4.362;2023-03-01T05:26:56;-0.80;99.90
14517;DHT22;7344;50.864;4.362;2023-03-01T05:29:23;-0.80;99.90
14517;DHT22;7344;50.864;4.362;2023-03-01T05:31:57;-0.70;99.90
14517;DHT22;7344;50.864;4.362;2023-03-01T05:34:34;-0.80;99.90
14517;DHT22;7344;50.864;4.362;2023-03-01T05:37:01;-0.80;99.90
14517;DHT22;7344;50.864;4.362;2023-03-01T05:39:29;-0.80;99.90
14517;DHT22;7344;50.864;4.362;2023-03-01T05:41:56;-0.80;99.90
14517;DHT22;7344;50.864;4.362;2023-03-01T05:44:23;-0.80;99.90
14517;DHT22;7344;50.864;4.362;2023-03-01T05:46:49;-0.80;99.90
14517;DHT22;7344;50.864;4.362;2023-03-01T05:49:15;-0.80;99.90
14517;DHT22;7344;50.864;4.362;2023-03-01T05:51:41;-0.80;99.90
14517;DHT22;7344;50.864;4.362;2023-03-01T05:54:08;-0.80;99.90
14517;DHT22;7344;50.864;4.362;2023-03-01T05:56:35;-0.90;99.90
14517;DHT22;7344;50.864;4.362;2023-03-01T05:59:01;-0.90;99.90
14517;DHT22;7344;50.864;4.362;2023-03-01T06:01:27;-0.90;99.90
14517;DHT22;7344;50.864;4.362;2023-03-01T06:03:53;-0.90;99.90
14517;DHT22;7344;50.864;4.362;2023-03-01T06:06:18;-0.90;99.90
14517;DHT22;7344;50.864;4.362;2023-03-01T06:08:44;-0.90;99.90
14517;DHT22;7344;50.864;4.362;2023-03-01T06:11:09;-0.90;99.90
14517;DHT22;7344;50.864;4.362;2023-03-01T06:13:35;-0.90;99.90
14517;DHT22;7344;50.864;4.362;2023-03-01T06:16:07;-0.90;99.90
14517;DHT22;7344;50.864;4.362;2023-03-01T06:18:33;-0.90;99.90
14517;DHT22;7344;50.864;4.362;2023-03-01T06:20:58;-0.90;99.90
14517;DHT22;7344;50.864;4.362;2023-03-01T06:23:24;-0.90;99.90
14517;DHT22;7344;50.864;4.362;2023-03-01T06:25:50;-0.90;99.90
14517;DHT22;7344;50.864;4.362;2023-03-01T06:28:15;-0.90;99.90
14517;DHT22;7344;50.864;4.362;2023-03-01T06:30:41;-0.90;99.90
14517;DHT22;7344;50.864;4.362;2023-03-01T06:33:07;-0.90;99.90
14517;DHT22;7344;50.864;4.362;2023-03-01T06:35:32;-1.00;99.90
14517;DHT22;7344;50.864;4.362;2023-03-01T06:38:03;-1.00;99.90
14517;DHT22;7344;50.864;4.362;2023-03-01T06:40:30;-1.00;99.90
14517;DHT22;7344;50.864;4.362;2023-03-01T06:42:57;-0.90;99.90
14517;DHT22;7344;50.864;4.362;2023-03-01T06:45:23;-0.90;99.90
14517;DHT22;7344;50.864;4.362;2023-03-01T06:47:50;-0.90;99.90
14517;DHT22;7344;50.864;4.362;2023-03-01T06:50:16;-0.90;99.90
14517;DHT22;7344;50.864;4.362;2023-03-01T06:52:42;-0.90;99.90
14517;DHT22;7344;50.864;4.362;2023-03-01T06:55:10;-0.90;99.90
14517;DHT22;7344;50.864;4.362;2023-03-01T06:57:36;-0.80;99.90
14517;DHT22;7344;50.864;4.362;2023-03-01T07:00:04;-0.80;99.90
14517;DHT22;7344;50.864;4.362;2023-03-01T07:02:31;-0.70;99.90
14517;DHT22;7344;50.864;4.362;2023-03-01T07:04:56;-0.70;99.90
14517;DHT22;7344;50.864;4.362;2023-03-01T07:07:22;-0.70;99.90
14517;DHT22;7344;50.864;4.362;2023-03-01T07:09:49;-0.60;99.90
14517;DHT22;7344;50.864;4.362;2023-03-01T07:12:15;-0.50;99.90
14517;DHT22;7344;50.864;4.362;2023-03-01T07:14:41;-0.40;99.90
14517;DHT22;7344;50.864;4.362;2023-03-01T07:17:07;-0.20;99.90
14517;DHT22;7344;50.864;4.362;2023-03-01T07:19:32;-0.10;99.90
14517;DHT22;7344;50.864;4.362;2023-03-01T07:21:58;0.40;99.90
14517;DHT22;7344;50.864;4.362;2023-03-01T07:24:24;1.10;99.90
14517;DHT22;7344;50.864;4.362;2023-03-01T07:26:50;2.00;99.90
14517;DHT22;7344;50.864;4.362;2023-03-01T07:29:17;3.10;99.90
14517;DHT22;7344;50.864;4.362;2023-03-01T07:31:43;3.30;46.40
14517;DHT22;7344;50.864;4.362;2023-03-01T07:34:09;3.50;1.00
14517;DHT22;7344;50.864;4.362;2023-03-01T07:36:36;4.10;99.90
14517;DHT22;7344;50.864;4.362;2023-03-01T07:39:02;4.30;97.60
14517;DHT22;7344;50.864;4.362;2023-03-01T07:41:28;4.30;99.90
14517;DHT22;7344;50.864;4.362;2023-03-01T07:43:54;4.40;1.00
14517;DHT22;7344;50.864;4.362;2023-03-01T07:46:20;4.60;20.40
14517;DHT22;7344;50.864;4.362;2023-03-01T07:48:46;4.50;39.40
14517;DHT22;7344;50.864;4.362;2023-03-01T07:51:12;4.60;1.00
14517;DHT22;7344;50.864;4.362;2023-03-01T07:53:38;4.90;1.00
14517;DHT22;7344;50.864;4.362;2023-03-01T07:56:11;5.30;1.00
14517;DHT22;7344;50.864;4.362;2023-03-01T07:58:39;5.70;1.00
14517;DHT22;7344;50.864;4.362;2023-03-01T08:01:07;6.10;99.90
14517;DHT22;7344;50.864;4.362;2023-03-01T08:03:34;6.00;99.90
14517;DHT22;7344;50.864;4.362;2023-03-01T08:06:01;6.40;55.60
14517;DHT22;7344;50.864;4.362;2023-03-01T08:08:27;7.10;1.00
14517;DHT22;7344;50.864;4.362;2023-03-01T08:10:56;7.40;1.00
14517;DHT22;7344;50.864;4.362;2023-03-01T08:13:22;7.90;1.00
14517;DHT22;7344;50.864;4.362;2023-03-01T08:15:51;7.80;1.00
14517;DHT22;7344;50.864;4.362;2023-03-01T08:18:17;7.90;1.00
14517;DHT22;7344;50.864;4.362;2023-03-01T08:20:43;8.70;1.00
14517;DHT22;7344;50.864;4.362;2023-03-01T08:23:09;9.20;99.90
14517;DHT22;7344;50.864;4.362;2023-03-01T08:25:35;8.70;99.90
14517;DHT22;7344;50.864;4.362;2023-03-01T08:28:00;8.70;99.90
14517;DHT22;7344;50.864;4.362;2023-03-01T08:30:26;7.50;1.00
14517;DHT22;7344;50.864;4.362;2023-03-01T08:32:51;7.90;1.00
14517;DHT22;7344;50.864;4.362;2023-03-01T08:35:17;8.60;99.90
14517;DHT22;7344;50.864;4.362;2023-03-01T08:37:44;7.80;99.90
14517;DHT22;7344;50.864;4.362;2023-03-01T08:40:10;7.30;1.00
14517;DHT22;7344;50.864;4.362;2023-03-01T08:42:36;7.10;1.00
14517;DHT22;7344;50.864;4.362;2023-03-01T08:45:06;7.70;1.00
14517;DHT22;7344;50.864;4.362;2023-03-01T08:47:32;7.80;1.00
14517;DHT22;7344;50.864;4.362;2023-03-01T08:49:59;7.30;1.00
14517;DHT22;7344;50.864;4.362;2023-03-01T08:52:25;7.30;1.00
14517;DHT22;7344;50.864;4.362;2023-03-01T08:54:51;7.60;1.00
14517;DHT22;7344;50.864;4.362;2023-03-01T08:57:17;7.70;1.00
14517;DHT22;7344;50.864;4.362;2023-03-01T08:59:42;8.10;1.00
14517;DHT22;7344;50.864;4.362;2023-03-01T09:02:14;8.60;99.90
14517;DHT22;7344;50.864;4.362;2023-03-01T09:04:40;7.90;99.90
14517;DHT22;7344;50.864;4.362;2023-03-01T09:07:06;7.50;1.00
14517;DHT22;7344;50.864;4.362;2023-03-01T09:09:32;7.30;1.00
14517;DHT22;7344;50.864;4.362;2023-03-01T09:11:57;7.50;1.00
14517;DHT22;7344;50.864;4.362;2023-03-01T09:14:23;8.50;99.90
14517;DHT22;7344;50.864;4.362;2023-03-01T09:16:49;8.80;99.90
14517;DHT22;7344;50.864;4.362;2023-03-01T09:19:16;8.30;99.90
14517;DHT22;7344;50.864;4.362;2023-03-01T09:21:42;8.50;99.90
14517;DHT22;7344;50.864;4.362;2023-03-01T09:24:21;8.70;99.90
14517;DHT22;7344;50.864;4.362;2023-03-01T09:26:47;9.10;99.90
14517;DHT22;7344;50.864;4.362;2023-03-01T09:29:14;9.50;99.90
14517;DHT22;7344;50.864;4.362;2023-03-01T09:31:40;9.20;99.90
14517;DHT22;7344;50.864;4.362;2023-03-01T09:34:07;8.60;99.90
14517;DHT22;7344;50.864;4.362;2023-03-01T09:36:33;8.90;99.90
14517;DHT22;7344;50.864;4.362;2023-03-01T09:38:59;8.90;99.90
14517;DHT22;7344;50.864;4.362;2023-03-01T09:47:15;8.50;99.90
14517;DHT22;7344;50.864;4.362;2023-03-01T09:49:43;9.00;99.90
14517;DHT22;7344;50.864;4.362;2023-03-01T09:55:01;8.60;99.90
14517;DHT22;7344;50.864;4.362;2023-03-01T09:57:44;8.90;99.90
14517;DHT22;7344;50.864;4.362;2023-03-01T10:10:40;7.20;99.90
14517;DHT22;7344;50.864;4.362;2023-03-01T10:13:19;7.30;99.90
14517;DHT22;7344;50.864;4.362;2023-03-01T10:16:02;7.80;99.90
14517;DHT22;7344;50.864;4.362;2023-03-01T10:18:31;8.60;99.90
14517;DHT22;7344;50.864;4.362;2023-03-01T10:21:01;8.10;99.90
14517;DHT22;7344;50.864;4.362;2023-03-01T10:23:31;7.30;99.90
14517;DHT22;7344;50.864;4.362;2023-03-01T10:26:18;7.10;99.90
14517;DHT22;7344;50.864;4.362;2023-03-01T10:31:27;6.40;1.00
14517;DHT22;7344;50.864;4.362;2023-03-01T10:33:55;7.10;1.00
14517;DHT22;7344;50.864;4.362;2023-03-01T10:36:23;7.40;99.90
14517;DHT22;7344;50.864;4.362;2023-03-01T10:41:14;7.70;99.90
14517;DHT22;7344;50.864;4.362;2023-03-01T10:43:52;7.90;99.90
14517;DHT22;7344;50.864;4.362;2023-03-01T10:49:19;8.30;99.90
14517;DHT22;7344;50.864;4.362;2023-03-01T10:51:47;8.10;99.90
14517;DHT22;7344;50.864;4.362;2023-03-01T10:54:21;7.70;99.90
14517;DHT22;7344;50.864;4.362;2023-03-01T10:56:56;8.00;99.90
14517;DHT22;7344;50.864;4.362;2023-03-01T10:59:38;8.40;99.90
14517;DHT22;7344;50.864;4.362;2023-03-01T11:02:15;8.50;99.90
14517;DHT22;7344;50.864;4.362;2023-03-01T11:05:02;8.80;99.90
14517;DHT22;7344;50.864;4.362;2023-03-01T11:10:23;8.70;99.90
14517;DHT22;7344;50.864;4.362;2023-03-01T11:12:51;8.50;99.90
14517;DHT22;7344;50.864;4.362;2023-03-01T11:15:28;8.20;99.90
14517;DHT22;7344;50.864;4.362;2023-03-01T11:17:55;8.60;99.90
14517;DHT22;7344;50.864;4.362;2023-03-01T11:20:35;8.10;99.90
14517;DHT22;7344;50.864;4.362;2023-03-01T11:23:10;8.00;99.90
14517;DHT22;7344;50.864;4.362;2023-03-01T11:25:40;8.20;99.90
14517;DHT22;7344;50.864;4.362;2023-03-01T11:28:14;8.30;99.90
14517;DHT22;7344;50.864;4.362;2023-03-01T11:30:45;8.30;99.90
14517;DHT22;7344;50.864;4.362;2023-03-01T11:33:40;8.60;99.90
14517;DHT22;7344;50.864;4.362;2023-03-01T11:36:13;8.30;99.90
14517;DHT22;7344;50.864;4.362;2023-03-01T11:38:41;8.20;99.90
14517;DHT22;7344;50.864;4.362;2023-03-01T11:41:36;8.20;99.90
14517;DHT22;7344;50.864;4.362;2023-03-01T11:44:21;8.40;99.90
14517;DHT22;7344;50.864;4.362;2023-03-01T11:50:51;8.50;99.90
14517;DHT22;7344;50.864;4.362;2023-03-01T11:58:33;8.20;99.90
14517;DHT22;7344;50.864;4.362;2023-03-01T12:01:16;8.40;99.90
14517;DHT22;7344;50.864;4.362;2023-03-01T12:07:14;8.40;99.90
14517;DHT22;7344;50.864;4.362;2023-03-01T12:19:07;8.10;99.90
14517;DHT22;7344;50.864;4.362;2023-03-01T12:26:43;7.60;99.90
14517;DHT22;7344;50.864;4.362;2023-03-01T12:32:10;7.80;99.90
14517;DHT22;7344;50.864;4.362;2023-03-01T12:37:35;7.70;99.90
14517;DHT22;7344;50.864;4.362;2023-03-01T12:43:22;7.40;99.90
14517;DHT22;7344;50.864;4.362;2023-03-01T12:45:54;7.10;99.90
14517;DHT22;7344;50.864;4.362;2023-03-01T12:48:26;6.90;99.90
14517;DHT22;7344;50.864;4.362;2023-03-01T12:50:54;7.10;99.90
14517;DHT22;7344;50.864;4.362;2023-03-01T12:53:24;7.10;99.90
14517;DHT22;7344;50.864;4.362;2023-03-01T12:55:53;7.20;99.90
14517;DHT22;7344;50.864;4.362;2023-03-01T13:04:06;7.30;99.90
14517;DHT22;7344;50.864;4.362;2023-03-01T13:09:44;7.20;99.90
14517;DHT22;7344;50.864;4.362;2023-03-01T13:17:48;7.10;99.90
14517;DHT22;7344;50.864;4.362;2023-03-01T13:20:16;7.00;99.90
14517;DHT22;7344;50.864;4.362;2023-03-01T13:22:43;7.00;99.90
14517;DHT22;7344;50.864;4.362;2023-03-01T13:25:19;7.20;99.90
14517;DHT22;7344;50.864;4.362;2023-03-01T13:27:46;7.10;99.90
14517;DHT22;7344;50.864;4.362;2023-03-01T13:38:56;6.90;99.90
14517;DHT22;7344;50.864;4.362;2023-03-01T13:44:13;7.10;99.90
14517;DHT22;7344;50.864;4.362;2023-03-01T13:46:44;7.10;99.90
14517;DHT22;7344;50.864;4.362;2023-03-01T13:49:14;7.20;99.90
14517;DHT22;7344;50.864;4.362;2023-03-01T13:51:41;7.30;99.90
14517;DHT22;7344;50.864;4.362;2023-03-01T13:54:11;7.30;99.90
14517;DHT22;7344;50.864;4.362;2023-03-01T13:56:37;7.20;99.90
14517;DHT22;7344;50.864;4.362;2023-03-01T13:59:17;7.30;99.90
14517;DHT22;7344;50.864;4.362;2023-03-01T14:01:43;7.20;99.90
14517;DHT22;7344;50.864;4.362;2023-03-01T14:04:29;7.10;99.90
14517;DHT22;7344;50.864;4.362;2023-03-01T14:09:43;7.20;99.90
14517;DHT22;7344;50.864;4.362;2023-03-01T14:20:28;7.10;99.90
14517;DHT22;7344;50.864;4.362;2023-03-01T14:23:01;7.10;99.90
14517;DHT22;7344;50.864;4.362;2023-03-01T14:25:35;7.20;99.90
14517;DHT22;7344;50.864;4.362;2023-03-01T14:30:45;7.10;99.90
14517;DHT22;7344;50.864;4.362;2023-03-01T14:36:06;7.10;99.90
14517;DHT22;7344;50.864;4.362;2023-03-01T14:41:28;7.10;99.90
14517;DHT22;7344;50.864;4.362;2023-03-01T14:43:58;7.10;99.90
14517;DHT22;7344;50.864;4.362;2023-03-01T14:46:38;7.10;99.90
14517;DHT22;7344;50.864;4.362;2023-03-01T14:49:19;7.20;99.90
14517;DHT22;7344;50.864;4.362;2023-03-01T14:54:24;7.20;99.90
14517;DHT22;7344;50.864;4.362;2023-03-01T14:56:52;7.30;99.90
14517;DHT22;7344;50.864;4.362;2023-03-01T14:59:22;7.20;99.90
14517;DHT22;7344;50.864;4.362;2023-03-01T15:01:49;7.30;99.90
14517;DHT22;7344;50.864;4.362;2023-03-01T15:04:16;7.10;99.90
14517;DHT22;7344;50.864;4.362;2023-03-01T15:06:42;7.10;99.90
14517;DHT22;7344;50.864;4.362;2023-03-01T15:09:13;7.10;99.90
14517;DHT22;7344;50.864;4.362;2023-03-01T15:11:39;7.20;99.90
14517;DHT22;7344;50.864;4.362;2023-03-01T15:16:53;7.10;99.90
14517;DHT22;7344;50.864;4.362;2023-03-01T15:19:19;7.10;99.90
14517;DHT22;7344;50.864;4.362;2023-03-01T15:21:48;7.20;99.90
14517;DHT22;7344;50.864;4.362;2023-03-01T15:24:22;7.10;99.90
14517;DHT22;7344;50.864;4.362;2023-03-01T15:26:57;7.10;99.90
14517;DHT22;7344;50.864;4.362;2023-03-01T15:29:32;7.20;99.90
14517;DHT22;7344;50.864;4.362;2023-03-01T15:32:04;7.20;99.90
14517;DHT22;7344;50.864;4.362;2023-03-01T15:34:36;7.20;99.90
14517;DHT22;7344;50.864;4.362;2023-03-01T15:39:58;7.30;99.90
14517;DHT22;7344;50.864;4.362;2023-03-01T15:47:35;7.00;99.90
14517;DHT22;7344;50.864;4.362;2023-03-01T15:50:01;7.00;99.90
14517;DHT22;7344;50.864;4.362;2023-03-01T15:52:40;7.00;99.90
14517;DHT22;7344;50.864;4.362;2023-03-01T15:55:26;7.00;99.90
14517;DHT22;7344;50.864;4.362;2023-03-01T15:58:16;7.00;99.90
14517;DHT22;7344;50.864;4.362;2023-03-01T16:00:43;7.00;99.90
14517;DHT22;7344;50.864;4.362;2023-03-01T16:03:11;6.90;99.90
14517;DHT22;7344;50.864;4.362;2023-03-01T16:05:37;6.90;99.90
14517;DHT22;7344;50.864;4.362;2023-03-01T16:08:04;6.90;99.90
14517;DHT22;7344;50.864;4.362;2023-03-01T16:10:31;6.90;99.90
14517;DHT22;7344;50.864;4.362;2023-03-01T16:12:58;6.90;99.90
14517;DHT22;7344;50.864;4.362;2023-03-01T16:15:29;6.90;99.90
14517;DHT22;7344;50.864;4.362;2023-03-01T16:17:55;6.90;99.90
14517;DHT22;7344;50.864;4.362;2023-03-01T16:20:24;6.90;99.90
14517;DHT22;7344;50.864;4.362;2023-03-01T16:22:50;6.80;99.90
14517;DHT22;7344;50.864;4.362;2023-03-01T16:25:19;6.80;99.90
14517;DHT22;7344;50.864;4.362;2023-03-01T16:27:46;6.70;99.90
14517;DHT22;7344;50.864;4.362;2023-03-01T16:30:13;6.70;99.90
14517;DHT22;7344;50.864;4.362;2023-03-01T16:32:43;6.70;99.90
14517;DHT22;7344;50.864;4.362;2023-03-01T16:35:10;6.70;99.90
14517;DHT22;7344;50.864;4.362;2023-03-01T16:37:37;6.70;99.90
14517;DHT22;7344;50.864;4.362;2023-03-01T16:40:04;6.60;99.90
14517;DHT22;7344;50.864;4.362;2023-03-01T16:42:36;6.60;99.90
14517;DHT22;7344;50.864;4.362;2023-03-01T16:45:03;6.60;99.90
14517;DHT22;7344;50.864;4.362;2023-03-01T16:47:29;6.60;1.00
14517;DHT22;7344;50.864;4.362;2023-03-01T16:49:54;6.60;1.00
14517;DHT22;7344;50.864;4.362;2023-03-01T16:52:21;6.60;1.00
14517;DHT22;7344;50.864;4.362;2023-03-01T16:54:47;6.50;1.00
14517;DHT22;7344;50.864;4.362;2023-03-01T16:57:13;6.50;1.00
14517;DHT22;7344;50.864;4.362;2023-03-01T16:59:39;6.50;1.00
14517;DHT22;7344;50.864;4.362;2023-03-01T17:02:06;6.50;1.00
14517;DHT22;7344;50.864;4.362;2023-03-01T17:04:33;6.40;1.00
14517;DHT22;7344;50.864;4.362;2023-03-01T17:06:58;6.40;1.00
14517;DHT22;7344;50.864;4.362;2023-03-01T17:09:24;6.40;1.00
14517;DHT22;7344;50.864;4.362;2023-03-01T17:11:50;6.40;1.00
14517;DHT22;7344;50.864;4.362;2023-03-01T17:14:16;6.30;1.00
14517;DHT22;7344;50.864;4.362;2023-03-01T17:16:43;6.30;1.00
14517;DHT22;7344;50.864;4.362;2023-03-01T17:19:08;6.30;1.00
14517;DHT22;7344;50.864;4.362;2023-03-01T17:21:34;6.20;1.00
14517;DHT22;7344;50.864;4.362;2023-03-01T17:24:00;6.20;1.00
14517;DHT22;7344;50.864;4.362;2023-03-01T17:26:26;6.10;1.00
14517;DHT22;7344;50.864;4.362;2023-03-01T17:28:54;6.00;1.00
14517;DHT22;7344;50.864;4.362;2023-03-01T17:31:21;6.10;1.00
14517;DHT22;7344;50.864;4.362;2023-03-01T17:33:46;6.00;1.00
14517;DHT22;7344;50.864;4.362;2023-03-01T17:36:12;6.00;1.00
14517;DHT22;7344;50.864;4.362;2023-03-01T17:38:38;6.00;1.00
14517;DHT22;7344;50.864;4.362;2023-03-01T17:41:03;5.90;1.00
14517;DHT22;7344;50.864;4.362;2023-03-01T17:43:30;5.90;1.00
14517;DHT22;7344;50.864;4.362;2023-03-01T17:45:56;5.80;1.00
14517;DHT22;7344;50.864;4.362;2023-03-01T17:48:22;5.80;1.00
14517;DHT22;7344;50.864;4.362;2023-03-01T17:50:47;5.70;1.00
14517;DHT22;7344;50.864;4.362;2023-03-01T17:53:13;5.80;99.90
14517;DHT22;7344;50.864;4.362;2023-03-01T17:55:40;5.70;1.00
14517;DHT22;7344;50.864;4.362;2023-03-01T17:58:07;5.60;1.00
14517;DHT22;7344;50.864;4.362;2023-03-01T18:00:34;5.60;1.00
14517;DHT22;7344;50.864;4.362;2023-03-01T18:03:00;5.60;24.80
14517;DHT22;7344;50.864;4.362;2023-03-01T18:05:26;5.60;92.20
14517;DHT22;7344;50.864;4.362;2023-03-01T18:07:52;5.50;92.10
14517;DHT22;7344;50.864;4.362;2023-03-01T18:10:19;5.50;92.30
14517;DHT22;7344;50.864;4.362;2023-03-01T18:12:45;5.50;92.30
14517;DHT22;7344;50.864;4.362;2023-03-01T18:15:11;5.50;92.40
14517;DHT22;7344;50.864;4.362;2023-03-01T18:17:37;5.50;92.70
14517;DHT22;7344;50.864;4.362;2023-03-01T18:20:04;5.40;92.60